sensor_id;sensor_type;location;lat;lon;timestamp;P1;durP1;ratioP1;P2;durP2;ratioP2
21430;SDS011;10876;49.038;10.608;2023-02-20T00:01:29;15.40;;;5.70;;
21430;SDS011;10876;49.038;10.608;2023-02-20T00:04:01;11.73;;;5.30;;
21430;SDS011;10876;49.038;10.608;2023-02-20T00:06:29;10.13;;;4.72;;
21430;SDS011;10876;49.038;10.608;2023-02-20T00:08:56;10.93;;;5.95;;
21430;SDS011;10876;49.038;10.608;2023-02-20T00:11:24;10.85;;;5.10;;
21430;SDS011;10876;49.038;10.608;2023-02-20T00:13:53;10.98;;;5.35;;
21430;SDS011;10876;49.038;10.608;2023-02-20T00:16:20;14.85;;;5.10;;
21430;SDS011;10876;49.038;10.608;2023-02-20T00:18:47;8.02;;;4.95;;
21430;SDS011;10876;49.038;10.608;2023-02-20T00:21:15;10.43;;;5.03;;
21430;SDS011;10876;49.038;10.608;2023-02-20T00:23:43;8.98;;;5.30;;
21430;SDS011;10876;49.038;10.608;2023-02-20T00:26:10;8.10;;;4.68;;
21430;SDS011;10876;49.038;10.608;2023-02-20T00:28:39;13.68;;;4.95;;
21430;SDS011;10876;49.038;10.608;2023-02-20T00:31:10;11.10;;;5.47;;
21430;SDS011;10876;49.038;10.608;2023-02-20T00:33:39;10.52;;;5.50;;
21430;SDS011;10876;49.038;10.608;2023-02-20T00:36:07;10.02;;;5.00;;
21430;SDS011;10876;49.038;10.608;2023-02-20T00:38:40;10.20;;;5.10;;
21430;SDS011;10876;49.038;10.608;2023-02-20T00:41:12;11.18;;;5.75;;
21430;SDS011;10876;49.038;10.608;2023-02-20T00:43:41;13.57;;;5.03;;
21430;SDS011;10876;49.038;10.608;2023-02-20T00:46:13;11.00;;;5.32;;
21430;SDS011;10876;49.038;10.608;2023-02-20T00:48:42;10.07;;;5.20;;
21430;SDS011;10876;49.038;10.608;2023-02-20T00:51:18;11.73;;;5.30;;
21430;SDS011;10876;49.038;10.608;2023-02-20T00:53:45;8.48;;;5.20;;
21430;SDS011;10876;49.038;10.608;2023-02-20T00:56:25;6.57;;;4.43;;
21430;SDS011;10876;49.038;10.608;2023-02-20T00:58:52;15.10;;;4.85;;
21430;SDS011;10876;49.038;10.608;2023-02-20T01:01:25;9.02;;;4.70;;
21430;SDS011;10876;49.038;10.608;2023-02-20T01:03:52;8.05;;;3.85;;
21430;SDS011;10876;49.038;10.608;2023-02-20T01:06:19;10.90;;;4.50;;
21430;SDS011;10876;49.038;10.608;2023-02-20T01:08:46;9.43;;;4.60;;
21430;SDS011;10876;49.038;10.608;2023-02-20T01:11:13;13.32;;;4.82;;
21430;SDS011;10876;49.038;10.608;2023-02-20T01:13:40;10.65;;;4.95;;
21430;SDS011;10876;49.038;10.608;2023-02-20T01:16:07;13.07;;;5.03;;
21430;SDS011;10876;49.038;10.608;2023-02-20T01:18:36;9.43;;;4.78;;
21430;SDS011;10876;49.038;10.608;2023-02-20T01:21:03;11.82;;;5.00;;
21430;SDS011;10876;49.038;10.608;2023-02-20T01:23:32;10.63;;;4.45;;
21430;SDS011;10876;49.038;10.608;2023-02-20T01:26:04;12.23;;;4.28;;
21430;SDS011;10876;49.038;10.608;2023-02-20T01:28:31;8.80;;;4.43;;
21430;SDS011;10876;49.038;10.608;2023-02-20T01:30:58;11.95;;;5.43;;
21430;SDS011;10876;49.038;10.608;2023-02-20T01:33:25;10.55;;;4.70;;
21430;SDS011;10876;49.038;10.608;2023-02-20T01:35:54;11.13;;;4.95;;
21430;SDS011;10876;49.038;10.608;2023-02-20T01:38:20;8.70;;;4.63;;
21430;SDS011;10876;49.038;10.608;2023-02-20T01:40:48;10.38;;;4.97;;
21430;SDS011;10876;49.038;10.608;2023-02-20T01:43:16;8.88;;;5.00;;
21430;SDS011;10876;49.038;10.608;2023-02-20T01:45:43;11.73;;;5.00;;
21430;SDS011;10876;49.038;10.608;2023-02-20T01:48:16;11.18;;;4.82;;
21430;SDS011;10876;49.038;10.608;2023-02-20T01:50:46;12.18;;;5.45;;
21430;SDS011;10876;49.038;10.608;2023-02-20T01:53:18;10.95;;;5.00;;
21430;SDS011;10876;49.038;10.608;2023-02-20T01:55:50;14.27;;;5.28;;
21430;SDS011;10876;49.038;10.608;2023-02-20T01:58:22;10.10;;;5.15;;
21430;SDS011;10876;49.038;10.608;2023-02-20T02:00:51;12.55;;;5.05;;
21430;SDS011;10876;49.038;10.608;2023-02-20T02:03:20;10.85;;;5.03;;
21430;SDS011;10876;49.038;10.608;2023-02-20T02:05:51;9.30;;;4.78;;
21430;SDS011;10876;49.038;10.608;2023-02-20T02:08:24;11.90;;;5.63;;
21430;SDS011;10876;49.038;10.608;2023-02-20T02:10:56;10.52;;;5.00;;
21430;SDS011;10876;49.038;10.608;2023-02-20T02:13:27;11.05;;;5.75;;
21430;SDS011;10876;49.038;10.608;2023-02-20T02:16:01;10.02;;;5.22;;
21430;SDS011;10876;49.038;10.608;2023-02-20T02:18:43;10.52;;;5.00;;
21430;SDS011;10876;49.038;10.608;2023-02-20T02:24:50;9.82;;;4.90;;
21430;SDS011;10876;49.038;10.608;2023-02-20T02:36:54;10.18;;;5.20;;
21430;SDS011;10876;49.038;10.608;2023-02-20T02:39:31;9.18;;;5.13;;
21430;SDS011;10876;49.038;10.608;2023-02-20T02:42:08;10.73;;;5.65;;
21430;SDS011;10876;49.038;10.608;2023-02-20T02:44:41;11.48;;;5.47;;
21430;SDS011;10876;49.038;10.608;2023-02-20T02:47:12;13.52;;;5.13;;
21430;SDS011;10876;49.038;10.608;2023-02-20T02:49:44;11.13;;;5.05;;
21430;SDS011;10876;49.038;10.608;2023-02-20T02:52:18;15.32;;;5.30;;
21430;SDS011;10876;49.038;10.608;2023-02-20T02:55:01;9.15;;;4.90;;
21430;SDS011;10876;49.038;10.608;2023-02-20T02:57:28;10.45;;;5.20;;
21430;SDS011;10876;49.038;10.608;2023-02-20T02:59:56;8.77;;;5.30;;
21430;SDS011;10876;49.038;10.608;2023-02-20T03:02:27;12.77;;;5.47;;
21430;SDS011;10876;49.038;10.608;2023-02-20T03:04:58;10.88;;;5.85;;
21430;SDS011;10876;49.038;10.608;2023-02-20T03:07:28;11.32;;;5.22;;
21430;SDS011;10876;49.038;10.608;2023-02-20T03:09:59;12.07;;;4.90;;
21430;SDS011;10876;49.038;10.608;2023-02-20T03:12:29;8.18;;;4.95;;
21430;SDS011;10876;49.038;10.608;2023-02-20T03:15:01;11.32;;;5.18;;
21430;SDS011;10876;49.038;10.608;2023-02-20T03:17:51;10.82;;;4.70;;
21430;SDS011;10876;49.038;10.608;2023-02-20T03:20:21;11.45;;;5.00;;
21430;SDS011;10876;49.038;10.608;2023-02-20T03:22:51;8.07;;;4.53;;
21430;SDS011;10876;49.038;10.608;2023-02-20T03:25:22;11.65;;;5.55;;
21430;SDS011;10876;49.038;10.608;2023-02-20T03:27:52;14.45;;;6.10;;
21430;SDS011;10876;49.038;10.608;2023-02-20T03:30:24;13.65;;;5.20;;
21430;SDS011;10876;49.038;10.608;2023-02-20T03:32:57;9.82;;;5.03;;
21430;SDS011;10876;49.038;10.608;2023-02-20T03:35:47;11.68;;;5.38;;
21430;SDS011;10876;49.038;10.608;2023-02-20T03:38:36;11.80;;;5.53;;
21430;SDS011;10876;49.038;10.608;2023-02-20T03:41:24;10.57;;;5.43;;
21430;SDS011;10876;49.038;10.608;2023-02-20T03:44:12;9.57;;;4.88;;
21430;SDS011;10876;49.038;10.608;2023-02-20T03:46:41;9.80;;;5.53;;
21430;SDS011;10876;49.038;10.608;2023-02-20T03:49:11;10.50;;;5.45;;
21430;SDS011;10876;49.038;10.608;2023-02-20T03:51:42;10.18;;;5.82;;
21430;SDS011;10876;49.038;10.608;2023-02-20T03:54:26;12.57;;;5.28;;
21430;SDS011;10876;49.038;10.608;2023-02-20T03:56:55;11.80;;;5.15;;
21430;SDS011;10876;49.038;10.608;2023-02-20T03:59:28;11.10;;;5.07;;
21430;SDS011;10876;49.038;10.608;2023-02-20T04:01:58;8.63;;;4.97;;
21430;SDS011;10876;49.038;10.608;2023-02-20T04:04:29;6.90;;;4.78;;
21430;SDS011;10876;49.038;10.608;2023-02-20T04:07:00;13.25;;;5.50;;
21430;SDS011;10876;49.038;10.608;2023-02-20T04:09:33;13.82;;;4.72;;
21430;SDS011;10876;49.038;10.608;2023-02-20T04:12:07;9.68;;;5.05;;
21430;SDS011;10876;49.038;10.608;2023-02-20T04:14:39;12.75;;;4.80;;
21430;SDS011;10876;49.038;10.608;2023-02-20T04:17:09;8.50;;;4.70;;
21430;SDS011;10876;49.038;10.608;2023-02-20T04:19:40;11.10;;;5.18;;
21430;SDS011;10876;49.038;10.608;2023-02-20T04:22:08;10.07;;;5.55;;
21430;SDS011;10876;49.038;10.608;2023-02-20T04:24:42;10.48;;;4.80;;
21430;SDS011;10876;49.038;10.608;2023-02-20T04:27:13;9.05;;;4.88;;
21430;SDS011;10876;49.038;10.608;2023-02-20T04:29:41;11.07;;;5.07;;
21430;SDS011;10876;49.038;10.608;2023-02-20T04:32:08;6.75;;;4.32;;
21430;SDS011;10876;49.038;10.608;2023-02-20T04:34:35;7.47;;;4.60;;
21430;SDS011;10876;49.038;10.608;2023-02-20T04:37:05;8.32;;;4.85;;
21430;SDS011;10876;49.038;10.608;2023-02-20T04:39:34;9.77;;;5.30;;
21430;SDS011;10876;49.038;10.608;2023-02-20T04:42:03;9.57;;;4.70;;
21430;SDS011;10876;49.038;10.608;2023-02-20T04:44:30;9.43;;;5.20;;
21430;SDS011;10876;49.038;10.608;2023-02-20T04:46:58;10.20;;;4.88;;
21430;SDS011;10876;49.038;10.608;2023-02-20T04:49:26;8.75;;;4.72;;
21430;SDS011;10876;49.038;10.608;2023-02-20T04:51:53;8.98;;;4.75;;
21430;SDS011;10876;49.038;10.608;2023-02-20T04:54:20;10.15;;;4.97;;
21430;SDS011;10876;49.038;10.608;2023-02-20T04:56:48;7.15;;;4.35;;
21430;SDS011;10876;49.038;10.608;2023-02-20T04:59:16;14.05;;;5.15;;
21430;SDS011;10876;49.038;10.608;2023-02-20T05:01:43;8.30;;;4.88;;
21430;SDS011;10876;49.038;10.608;2023-02-20T05:04:13;8.27;;;4.57;;
21430;SDS011;10876;49.038;10.608;2023-02-20T05:06:41;9.13;;;5.03;;
21430;SDS011;10876;49.038;10.608;2023-02-20T05:09:08;7.22;;;4.65;;
21430;SDS011;10876;49.038;10.608;2023-02-20T05:11:36;6.18;;;3.85;;
21430;SDS011;10876;49.038;10.608;2023-02-20T05:14:03;8.85;;;4.93;;
21430;SDS011;10876;49.038;10.608;2023-02-20T05:16:32;10.57;;;4.97;;
21430;SDS011;10876;49.038;10.608;2023-02-20T05:18:59;9.13;;;4.47;;
21430;SDS011;10876;49.038;10.608;2023-02-20T05:21:26;11.10;;;4.53;;
21430;SDS011;10876;49.038;10.608;2023-02-20T05:24:11;9.15;;;4.20;;
21430;SDS011;10876;49.038;10.608;2023-02-20T05:26:38;15.48;;;6.75;;
21430;SDS011;10876;49.038;10.608;2023-02-20T05:29:05;16.13;;;5.85;;
21430;SDS011;10876;49.038;10.608;2023-02-20T05:31:38;10.32;;;3.95;;
21430;SDS011;10876;49.038;10.608;2023-02-20T05:34:05;8.77;;;3.70;;
21430;SDS011;10876;49.038;10.608;2023-02-20T05:36:32;9.30;;;3.95;;
21430;SDS011;10876;49.038;10.608;2023-02-20T05:42:17;9.88;;;4.15;;
21430;SDS011;10876;49.038;10.608;2023-02-20T05:44:45;21.42;;;7.93;;
21430;SDS011;10876;49.038;10.608;2023-02-20T05:47:15;11.80;;;5.07;;
21430;SDS011;10876;49.038;10.608;2023-02-20T05:49:42;9.68;;;3.90;;
21430;SDS011;10876;49.038;10.608;2023-02-20T05:52:10;8.70;;;3.10;;
21430;SDS011;10876;49.038;10.608;2023-02-20T05:54:38;7.38;;;3.33;;
21430;SDS011;10876;49.038;10.608;2023-02-20T05:57:06;6.57;;;2.88;;
21430;SDS011;10876;49.038;10.608;2023-02-20T05:59:33;7.88;;;3.65;;
21430;SDS011;10876;49.038;10.608;2023-02-20T06:02:00;6.43;;;3.15;;
21430;SDS011;10876;49.038;10.608;2023-02-20T06:04:29;4.57;;;2.95;;
21430;SDS011;10876;49.038;10.608;2023-02-20T06:06:56;8.18;;;3.67;;
21430;SDS011;10876;49.038;10.608;2023-02-20T06:09:23;8.38;;;3.28;;
21430;SDS011;10876;49.038;10.608;2023-02-20T06:11:51;13.63;;;3.38;;
21430;SDS011;10876;49.038;10.608;2023-02-20T06:14:20;5.95;;;3.08;;
21430;SDS011;10876;49.038;10.608;2023-02-20T06:16:48;9.02;;;2.95;;
21430;SDS011;10876;49.038;10.608;2023-02-20T06:19:18;5.88;;;3.40;;
21430;SDS011;10876;49.038;10.608;2023-02-20T06:21:48;6.38;;;3.15;;
21430;SDS011;10876;49.038;10.608;2023-02-20T06:24:15;12.00;;;3.30;;
21430;SDS011;10876;49.038;10.608;2023-02-20T06:26:43;9.15;;;2.83;;
21430;SDS011;10876;49.038;10.608;2023-02-20T06:29:10;6.90;;;3.22;;
21430;SDS011;10876;49.038;10.608;2023-02-20T06:31:38;9.43;;;3.00;;
21430;SDS011;10876;49.038;10.608;2023-02-20T06:34:05;9.55;;;3.00;;
21430;SDS011;10876;49.038;10.608;2023-02-20T06:36:34;7.05;;;2.92;;
21430;SDS011;10876;49.038;10.608;2023-02-20T06:39:05;9.48;;;3.30;;
21430;SDS011;10876;49.038;10.608;2023-02-20T06:41:33;8.38;;;3.30;;
21430;SDS011;10876;49.038;10.608;2023-02-20T06:44:01;7.25;;;3.13;;
21430;SDS011;10876;49.038;10.608;2023-02-20T06:46:28;6.18;;;3.35;;
21430;SDS011;10876;49.038;10.608;2023-02-20T06:48:56;8.32;;;4.20;;
21430;SDS011;10876;49.038;10.608;2023-02-20T06:51:24;8.60;;;3.05;;
21430;SDS011;10876;49.038;10.608;2023-02-20T06:53:53;7.55;;;2.80;;
21430;SDS011;10876;49.038;10.608;2023-02-20T06:56:23;9.82;;;3.63;;
21430;SDS011;10876;49.038;10.608;2023-02-20T06:58:52;9.40;;;3.00;;
21430;SDS011;10876;49.038;10.608;2023-02-20T07:01:20;5.10;;;2.60;;
21430;SDS011;10876;49.038;10.608;2023-02-20T07:03:48;4.57;;;2.50;;
21430;SDS011;10876;49.038;10.608;2023-02-20T07:06:17;5.07;;;2.90;;
21430;SDS011;10876;49.038;10.608;2023-02-20T07:08:44;4.53;;;2.55;;
21430;SDS011;10876;49.038;10.608;2023-02-20T07:11:11;7.60;;;2.95;;
21430;SDS011;10876;49.038;10.608;2023-02-20T07:13:41;3.88;;;2.58;;
21430;SDS011;10876;49.038;10.608;2023-02-20T07:16:08;5.30;;;2.85;;
21430;SDS011;10876;49.038;10.608;2023-02-20T07:18:34;4.63;;;2.92;;
21430;SDS011;10876;49.038;10.608;2023-02-20T07:21:01;5.63;;;3.03;;
21430;SDS011;10876;49.038;10.608;2023-02-20T07:23:29;9.52;;;3.10;;
21430;SDS011;10876;49.038;10.608;2023-02-20T07:25:56;4.82;;;2.95;;
21430;SDS011;10876;49.038;10.608;2023-02-20T07:28:23;11.30;;;2.97;;
21430;SDS011;10876;49.038;10.608;2023-02-20T07:30:51;7.35;;;3.35;;
21430;SDS011;10876;49.038;10.608;2023-02-20T07:33:18;6.05;;;3.08;;
21430;SDS011;10876;49.038;10.608;2023-02-20T07:35:45;5.95;;;2.80;;
21430;SDS011;10876;49.038;10.608;2023-02-20T07:38:12;5.70;;;2.75;;
21430;SDS011;10876;49.038;10.608;2023-02-20T07:40:39;5.03;;;2.83;;
21430;SDS011;10876;49.038;10.608;2023-02-20T07:43:06;4.82;;;2.70;;
21430;SDS011;10876;49.038;10.608;2023-02-20T07:45:33;5.63;;;2.90;;
21430;SDS011;10876;49.038;10.608;2023-02-20T07:48:01;10.48;;;6.15;;
21430;SDS011;10876;49.038;10.608;2023-02-20T07:50:29;8.45;;;3.35;;
21430;SDS011;10876;49.038;10.608;2023-02-20T07:52:55;4.78;;;2.42;;
21430;SDS011;10876;49.038;10.608;2023-02-20T07:55:22;4.72;;;2.80;;
21430;SDS011;10876;49.038;10.608;2023-02-20T07:57:51;8.80;;;3.03;;
21430;SDS011;10876;49.038;10.608;2023-02-20T08:00:22;7.15;;;2.80;;
21430;SDS011;10876;49.038;10.608;2023-02-20T08:02:50;4.18;;;2.80;;
21430;SDS011;10876;49.038;10.608;2023-02-20T08:08:11;6.20;;;2.80;;
21430;SDS011;10876;49.038;10.608;2023-02-20T08:10:38;6.82;;;3.30;;
21430;SDS011;10876;49.038;10.608;2023-02-20T08:13:05;6.75;;;2.78;;
21430;SDS011;10876;49.038;10.608;2023-02-20T08:15:33;8.65;;;3.05;;
21430;SDS011;10876;49.038;10.608;2023-02-20T08:18:00;9.35;;;3.10;;
21430;SDS011;10876;49.038;10.608;2023-02-20T08:20:27;11.68;;;4.43;;
21430;SDS011;10876;49.038;10.608;2023-02-20T08:22:55;8.10;;;3.72;;
21430;SDS011;10876;49.038;10.608;2023-02-20T08:25:24;8.32;;;3.13;;
21430;SDS011;10876;49.038;10.608;2023-02-20T08:27:51;7.32;;;3.25;;
21430;SDS011;10876;49.038;10.608;2023-02-20T08:30:24;7.30;;;3.65;;
21430;SDS011;10876;49.038;10.608;2023-02-20T08:32:52;6.60;;;3.45;;
21430;SDS011;10876;49.038;10.608;2023-02-20T08:35:20;8.15;;;3.10;;
21430;SDS011;10876;49.038;10.608;2023-02-20T08:37:49;9.10;;;3.28;;
21430;SDS011;10876;49.038;10.608;2023-02-20T08:40:21;10.15;;;3.40;;
21430;SDS011;10876;49.038;10.608;2023-02-20T08:42:49;8.23;;;3.28;;
21430;SDS011;10876;49.038;10.608;2023-02-20T08:47:59;4.75;;;2.55;;
21430;SDS011;10876;49.038;10.608;2023-02-20T08:50:41;5.30;;;2.83;;
21430;SDS011;10876;49.038;10.608;2023-02-20T08:53:12;6.97;;;3.05;;
21430;SDS011;10876;49.038;10.608;2023-02-20T08:55:41;5.03;;;2.90;;
21430;SDS011;10876;49.038;10.608;2023-02-20T08:58:11;7.30;;;2.90;;
21430;SDS011;10876;49.038;10.608;2023-02-20T09:00:38;8.65;;;2.90;;
21430;SDS011;10876;49.038;10.608;2023-02-20T09:03:05;7.50;;;2.53;;
21430;SDS011;10876;49.038;10.608;2023-02-20T09:05:33;8.18;;;2.95;;
21430;SDS011;10876;49.038;10.608;2023-02-20T09:08:00;5.30;;;2.50;;
21430;SDS011;10876;49.038;10.608;2023-02-20T09:10:28;5.82;;;2.67;;
21430;SDS011;10876;49.038;10.608;2023-02-20T09:12:57;5.43;;;2.85;;
21430;SDS011;10876;49.038;10.608;2023-02-20T09:15:24;4.82;;;2.42;;
21430;SDS011;10876;49.038;10.608;2023-02-20T09:17:52;5.65;;;2.80;;
21430;SDS011;10876;49.038;10.608;2023-02-20T09:20:19;6.45;;;2.92;;
21430;SDS011;10876;49.038;10.608;2023-02-20T09:22:48;3.85;;;2.63;;
21430;SDS011;10876;49.038;10.608;2023-02-20T09:25:16;8.40;;;2.92;;
21430;SDS011;10876;49.038;10.608;2023-02-20T09:27:44;8.18;;;2.53;;
21430;SDS011;10876;49.038;10.608;2023-02-20T09:30:15;7.93;;;2.80;;
21430;SDS011;10876;49.038;10.608;2023-02-20T09:32:45;6.70;;;2.72;;
21430;SDS011;10876;49.038;10.608;2023-02-20T09:35:14;5.70;;;2.65;;
21430;SDS011;10876;49.038;10.608;2023-02-20T09:37:42;4.97;;;2.72;;
21430;SDS011;10876;49.038;10.608;2023-02-20T09:40:10;7.47;;;2.50;;
21430;SDS011;10876;49.038;10.608;2023-02-20T09:42:42;7.53;;;2.80;;
21430;SDS011;10876;49.038;10.608;2023-02-20T09:45:19;4.93;;;2.53;;
21430;SDS011;10876;49.038;10.608;2023-02-20T09:47:55;5.65;;;2.20;;
21430;SDS011;10876;49.038;10.608;2023-02-20T09:50:35;8.02;;;2.70;;
21430;SDS011;10876;49.038;10.608;2023-02-20T09:53:10;8.98;;;2.38;;
21430;SDS011;10876;49.038;10.608;2023-02-20T09:55:45;5.40;;;2.15;;
21430;SDS011;10876;49.038;10.608;2023-02-20T09:58:18;4.25;;;2.38;;
21430;SDS011;10876;49.038;10.608;2023-02-20T10:00:50;7.40;;;2.70;;
21430;SDS011;10876;49.038;10.608;2023-02-20T10:03:21;8.80;;;2.10;;
21430;SDS011;10876;49.038;10.608;2023-02-20T10:06:03;6.72;;;2.70;;
21430;SDS011;10876;49.038;10.608;2023-02-20T10:08:41;5.88;;;2.58;;
21430;SDS011;10876;49.038;10.608;2023-02-20T10:11:08;5.13;;;2.08;;
21430;SDS011;10876;49.038;10.608;2023-02-20T10:13:49;4.75;;;2.20;;
21430;SDS011;10876;49.038;10.608;2023-02-20T10:16:30;6.05;;;2.15;;
21430;SDS011;10876;49.038;10.608;2023-02-20T10:19:03;6.22;;;2.25;;
21430;SDS011;10876;49.038;10.608;2023-02-20T10:21:42;4.72;;;2.42;;
21430;SDS011;10876;49.038;10.608;2023-02-20T10:24:25;7.45;;;2.05;;
21430;SDS011;10876;49.038;10.608;2023-02-20T10:27:02;3.83;;;2.00;;
21430;SDS011;10876;49.038;10.608;2023-02-20T10:29:42;5.47;;;2.75;;
21430;SDS011;10876;49.038;10.608;2023-02-20T10:32:13;4.90;;;1.88;;
21430;SDS011;10876;49.038;10.608;2023-02-20T10:34:48;4.15;;;2.10;;
21430;SDS011;10876;49.038;10.608;2023-02-20T10:37:22;4.25;;;1.90;;
21430;SDS011;10876;49.038;10.608;2023-02-20T10:39:53;7.18;;;1.83;;
21430;SDS011;10876;49.038;10.608;2023-02-20T10:42:27;3.80;;;1.48;;
21430;SDS011;10876;49.038;10.608;2023-02-20T10:45:00;4.15;;;1.60;;
21430;SDS011;10876;49.038;10.608;2023-02-20T10:47:35;3.83;;;1.70;;
21430;SDS011;10876;49.038;10.608;2023-02-20T10:50:11;4.90;;;1.77;;
21430;SDS011;10876;49.038;10.608;2023-02-20T10:52:45;2.63;;;1.58;;
21430;SDS011;10876;49.038;10.608;2023-02-20T10:55:18;4.40;;;1.63;;
21430;SDS011;10876;49.038;10.608;2023-02-20T10:57:50;3.78;;;1.50;;
21430;SDS011;10876;49.038;10.608;2023-02-20T11:00:24;7.18;;;1.67;;
21430;SDS011;10876;49.038;10.608;2023-02-20T11:02:59;4.13;;;1.73;;
21430;SDS011;10876;49.038;10.608;2023-02-20T11:05:32;4.32;;;1.70;;
21430;SDS011;10876;49.038;10.608;2023-02-20T11:08:04;4.82;;;1.55;;
21430;SDS011;10876;49.038;10.608;2023-02-20T11:10:31;7.28;;;1.63;;
21430;SDS011;10876;49.038;10.608;2023-02-20T11:12:59;3.65;;;1.70;;
21430;SDS011;10876;49.038;10.608;2023-02-20T11:15:28;1.63;;;1.30;;
21430;SDS011;10876;49.038;10.608;2023-02-20T11:17:59;8.32;;;1.92;;
21430;SDS011;10876;49.038;10.608;2023-02-20T11:20:36;2.05;;;1.27;;
21430;SDS011;10876;49.038;10.608;2023-02-20T11:23:06;4.05;;;1.73;;
21430;SDS011;10876;49.038;10.608;2023-02-20T11:25:34;5.03;;;1.70;;
21430;SDS011;10876;49.038;10.608;2023-02-20T11:28:06;3.40;;;1.60;;
21430;SDS011;10876;49.038;10.608;2023-02-20T11:30:37;2.67;;;1.25;;
21430;SDS011;10876;49.038;10.608;2023-02-20T11:33:10;3.80;;;1.40;;
21430;SDS011;10876;49.038;10.608;2023-02-20T11:35:40;5.35;;;1.50;;
21430;SDS011;10876;49.038;10.608;2023-02-20T11:38:16;3.40;;;1.52;;
21430;SDS011;10876;49.038;10.608;2023-02-20T11:41:09;4.00;;;1.50;;
21430;SDS011;10876;49.038;10.608;2023-02-20T11:44:03;2.90;;;1.35;;
21430;SDS011;10876;49.038;10.608;2023-02-20T11:52:57;4.13;;;1.50;;
21430;SDS011;10876;49.038;10.608;2023-02-20T11:55:26;2.15;;;1.35;;
21430;SDS011;10876;49.038;10.608;2023-02-20T12:01:52;4.43;;;1.50;;
21430;SDS011;10876;49.038;10.608;2023-02-20T12:04:20;2.15;;;1.23;;
21430;SDS011;10876;49.038;10.608;2023-02-20T12:06:54;3.83;;;1.52;;
21430;SDS011;10876;49.038;10.608;2023-02-20T12:09:21;2.75;;;1.38;;
21430;SDS011;10876;49.038;10.608;2023-02-20T12:11:52;4.85;;;1.73;;
21430;SDS011;10876;49.038;10.608;2023-02-20T12:14:21;3.58;;;1.20;;
21430;SDS011;10876;49.038;10.608;2023-02-20T12:16:59;3.08;;;1.30;;
21430;SDS011;10876;49.038;10.608;2023-02-20T12:19:37;2.67;;;1.38;;
21430;SDS011;10876;49.038;10.608;2023-02-20T12:22:17;3.90;;;1.23;;
21430;SDS011;10876;49.038;10.608;2023-02-20T12:24:58;4.10;;;1.45;;
21430;SDS011;10876;49.038;10.608;2023-02-20T12:27:46;2.72;;;1.08;;
21430;SDS011;10876;49.038;10.608;2023-02-20T12:30:31;2.95;;;1.05;;
21430;SDS011;10876;49.038;10.608;2023-02-20T12:36:16;3.35;;;1.00;;
21430;SDS011;10876;49.038;10.608;2023-02-20T12:38:54;4.45;;;1.55;;
21430;SDS011;10876;49.038;10.608;2023-02-20T12:41:27;2.20;;;1.60;;
21430;SDS011;10876;49.038;10.608;2023-02-20T12:46:57;3.05;;;1.25;;
21430;SDS011;10876;49.038;10.608;2023-02-20T12:49:37;3.75;;;1.20;;
21430;SDS011;10876;49.038;10.608;2023-02-20T12:52:22;3.35;;;1.13;;
21430;SDS011;10876;49.038;10.608;2023-02-20T12:55:11;4.40;;;1.25;;
21430;SDS011;10876;49.038;10.608;2023-02-20T12:57:47;5.07;;;1.60;;
21430;SDS011;10876;49.038;10.608;2023-02-20T13:00:22;4.30;;;1.35;;
21430;SDS011;10876;49.038;10.608;2023-02-20T13:02:58;4.22;;;2.60;;
21430;SDS011;10876;49.038;10.608;2023-02-20T13:05:32;3.03;;;1.15;;
21430;SDS011;10876;49.038;10.608;2023-02-20T13:08:03;3.25;;;1.10;;
21430;SDS011;10876;49.038;10.608;2023-02-20T13:10:41;2.63;;;1.30;;
21430;SDS011;10876;49.038;10.608;2023-02-20T13:13:14;3.67;;;1.20;;
21430;SDS011;10876;49.038;10.608;2023-02-20T13:15:42;1.42;;;1.10;;
21430;SDS011;10876;49.038;10.608;2023-02-20T13:18:21;4.68;;;2.15;;
21430;SDS011;10876;49.038;10.608;2023-02-20T13:20:59;1.95;;;1.27;;
21430;SDS011;10876;49.038;10.608;2023-02-20T13:23:31;2.78;;;1.70;;
21430;SDS011;10876;49.038;10.608;2023-02-20T13:26:01;3.03;;;1.92;;
21430;SDS011;10876;49.038;10.608;2023-02-20T13:28:50;2.88;;;1.17;;
21430;SDS011;10876;49.038;10.608;2023-02-20T13:31:18;2.08;;;1.05;;
21430;SDS011;10876;49.038;10.608;2023-02-20T13:33:47;2.47;;;0.95;;
21430;SDS011;10876;49.038;10.608;2023-02-20T13:36:37;2.58;;;0.88;;
21430;SDS011;10876;49.038;10.608;2023-02-20T13:45:01;4.68;;;0.95;;
21430;SDS011;10876;49.038;10.608;2023-02-20T13:47:51;3.97;;;1.15;;
21430;SDS011;10876;49.038;10.608;2023-02-20T13:50:45;2.47;;;1.20;;
21430;SDS011;10876;49.038;10.608;2023-02-20T13:53:12;2.55;;;0.93;;
21430;SDS011;10876;49.038;10.608;2023-02-20T13:55:40;3.65;;;0.90;;
21430;SDS011;10876;49.038;10.608;2023-02-20T13:58:11;2.08;;;0.98;;
21430;SDS011;10876;49.038;10.608;2023-02-20T14:03:28;2.47;;;1.00;;
21430;SDS011;10876;49.038;10.608;2023-02-20T14:06:04;2.10;;;0.90;;
21430;SDS011;10876;49.038;10.608;2023-02-20T14:08:33;2.38;;;0.88;;
21430;SDS011;10876;49.038;10.608;2023-02-20T14:11:04;5.43;;;1.00;;
21430;SDS011;10876;49.038;10.608;2023-02-20T14:13:33;1.95;;;0.90;;
21430;SDS011;10876;49.038;10.608;2023-02-20T14:16:03;2.40;;;0.98;;
21430;SDS011;10876;49.038;10.608;2023-02-20T14:18:31;4.22;;;1.00;;
21430;SDS011;10876;49.038;10.608;2023-02-20T14:21:13;2.78;;;0.80;;
21430;SDS011;10876;49.038;10.608;2023-02-20T14:23:43;2.35;;;1.45;;
21430;SDS011;10876;49.038;10.608;2023-02-20T14:26:21;2.28;;;1.15;;
21430;SDS011;10876;49.038;10.608;2023-02-20T14:28:50;2.83;;;0.82;;
21430;SDS011;10876;49.038;10.608;2023-02-20T14:31:21;1.23;;;0.70;;
21430;SDS011;10876;49.038;10.608;2023-02-20T14:33:50;3.55;;;1.00;;
21430;SDS011;10876;49.038;10.608;2023-02-20T14:36:25;2.28;;;0.80;;
21430;SDS011;10876;49.038;10.608;2023-02-20T14:39:20;1.90;;;1.00;;
21430;SDS011;10876;49.038;10.608;2023-02-20T14:42:13;3.33;;;1.10;;
21430;SDS011;10876;49.038;10.608;2023-02-20T14:44:42;1.55;;;0.90;;
21430;SDS011;10876;49.038;10.608;2023-02-20T14:47:15;1.08;;;0.80;;
21430;SDS011;10876;49.038;10.608;2023-02-20T14:49:43;2.15;;;1.00;;
21430;SDS011;10876;49.038;10.608;2023-02-20T14:52:11;2.38;;;0.90;;
21430;SDS011;10876;49.038;10.608;2023-02-20T14:54:40;4.25;;;0.90;;
21430;SDS011;10876;49.038;10.608;2023-02-20T14:57:11;1.92;;;0.90;;
21430;SDS011;10876;49.038;10.608;2023-02-20T14:59:39;3.72;;;1.10;;
21430;SDS011;10876;49.038;10.608;2023-02-20T15:02:12;2.97;;;0.90;;
21430;SDS011;10876;49.038;10.608;2023-02-20T15:04:47;2.63;;;0.98;;
21430;SDS011;10876;49.038;10.608;2023-02-20T15:07:15;2.92;;;0.75;;
21430;SDS011;10876;49.038;10.608;2023-02-20T15:09:45;2.15;;;0.90;;
21430;SDS011;10876;49.038;10.608;2023-02-20T15:12:18;1.70;;;0.77;;
21430;SDS011;10876;49.038;10.608;2023-02-20T15:14:51;1.58;;;0.70;;
21430;SDS011;10876;49.038;10.608;2023-02-20T15:17:22;4.47;;;0.98;;
21430;SDS011;10876;49.038;10.608;2023-02-20T15:19:51;3.15;;;1.00;;
21430;SDS011;10876;49.038;10.608;2023-02-20T15:22:22;1.63;;;0.88;;
21430;SDS011;10876;49.038;10.608;2023-02-20T15:24:51;2.05;;;0.90;;
21430;SDS011;10876;49.038;10.608;2023-02-20T15:27:19;3.53;;;1.00;;
21430;SDS011;10876;49.038;10.608;2023-02-20T15:30:11;1.48;;;0.65;;
21430;SDS011;10876;49.038;10.608;2023-02-20T15:32:42;4.32;;;0.90;;
21430;SDS011;10876;49.038;10.608;2023-02-20T15:35:17;3.58;;;1.08;;
21430;SDS011;10876;49.038;10.608;2023-02-20T15:37:52;2.50;;;1.05;;
21430;SDS011;10876;49.038;10.608;2023-02-20T15:40:20;1.55;;;0.80;;
21430;SDS011;10876;49.038;10.608;2023-02-20T15:42:50;6.22;;;1.15;;